Time;durP1;ratioP1;P1;durP2;ratioP2;P2;SDS_P1;SDS_P2;PMS_P1;PMS_P2;Temp;Humidity;BMP_temperature;BMP_pressure;BME280_temperature;BME280_humidity;BME280_pressure;Samples;Min_cycle;Max_cycle;Signal;HPM_P1;HPM_P2
2021/06/20 00:01:51;;;;;;;;;;;;;;;20.28;60.72;100329.50;4917924;29;20324;-84
2021/06/20 00:04:17;;;;;;;;;;;;;;;20.25;60.73;100332.97;4947009;29;19922;-84
2021/06/20 00:06:47;;;;;;;;;;;;;;;20.16;61.04;100338.69;4937280;29;19964;-84
2021/06/20 00:09:13;;;;;;;;;;;;;;;20.04;61.93;100332.38;4937229;29;20029;-92
2021/06/20 00:11:40;;;;;;;;;;;;;;;19.94;62.18;100333.66;4953899;29;20024;-93
2021/06/20 00:14:07;;;;;;;;;;;;;;;19.87;62.42;100327.91;4953927;29;20423;-84
2021/06/20 00:16:33;;;;;;;;;;;;;;;19.82;62.67;100336.47;4921443;29;19922;-84
2021/06/20 00:19:00;;;;;;;;;;;;;;;19.78;62.66;100333.59;4937230;29;20009;-86
2021/06/20 00:21:27;;;;;;;;;;;;;;;19.73;62.84;100333.00;4954082;29;19958;-89
2021/06/20 00:23:53;;;;;;;;;;;;;;;19.69;62.95;100333.72;4953969;29;19922;-84
2021/06/20 00:26:19;;;;;;;;;;;;;;;19.66;62.81;100336.38;4954064;29;20478;-84
2021/06/20 00:28:46;;;;;;;;;;;;;;;19.62;62.96;100336.25;4937134;29;20302;-84
2021/06/20 00:31:12;;;;;;;;;;;;;;;19.59;63.30;100336.94;4937387;29;19922;-93
2021/06/20 00:33:39;;;;;;;;;;;;;;;19.54;63.45;100336.38;4945956;29;20002;-83
2021/06/20 00:36:05;;;;;;;;;;;;;;;19.46;63.88;100336.13;4951023;29;19961;-83
2021/06/20 00:38:32;;;;;;;;;;;;;;;19.37;64.42;100332.69;4957389;29;19922;-94
2021/06/20 00:40:57;;;;;;;;;;;;;;;19.23;64.89;100335.78;4913430;29;19922;-84
2021/06/20 00:43:24;;;;;;;;;;;;;;;19.18;64.99;100343.56;4940374;29;19922;-84
2021/06/20 00:45:50;;;;;;;;;;;;;;;19.19;65.46;100336.84;4957463;29;19930;-84
2021/06/20 00:48:16;;;;;;;;;;;;;;;19.12;65.64;100339.38;4957529;29;19918;-93
2021/06/20 00:50:41;;;;;;;;;;;;;;;19.07;65.63;100340.41;4940029;29;20406;-84
2021/06/20 00:53:09;;;;;;;;;;;;;;;19.06;65.91;100343.53;4957238;29;19922;-83
2021/06/20 00:55:37;;;;;;;;;;;;;;;19.04;65.96;100332.81;4957528;29;20414;-84
2021/06/20 00:58:06;;;;;;;;;;;;;;;19.07;65.34;100339.59;4940244;29;19957;-84
2021/06/20 01:00:33;;;;;;;;;;;;;;;19.05;65.69;100328.88;4957079;29;19922;-84
2021/06/20 01:03:02;;;;;;;;;;;;;;;19.03;65.71;100345.03;4957113;29;19922;-84
2021/06/20 01:05:28;;;;;;;;;;;;;;;19.00;65.92;100335.44;4957043;29;19958;-84
2021/06/20 01:07:55;;;;;;;;;;;;;;;18.95;66.19;100341.22;4944190;29;19941;-92
2021/06/20 01:10:22;;;;;;;;;;;;;;;18.92;66.30;100341.91;4921082;29;19929;-84
2021/06/20 01:12:48;;;;;;;;;;;;;;;18.91;66.33;100345.84;4937696;29;19923;-83
2021/06/20 01:15:15;;;;;;;;;;;;;;;18.92;66.26;100346.63;4905179;29;20380;-84
2021/06/20 01:17:43;;;;;;;;;;;;;;;18.90;66.70;100348.94;4925836;29;20367;-83
2021/06/20 01:20:11;;;;;;;;;;;;;;;18.88;66.77;100342.94;4939689;29;20024;-83
2021/06/20 01:22:37;;;;;;;;;;;;;;;18.84;66.89;100342.81;4939636;29;19922;-83
2021/06/20 01:25:05;;;;;;;;;;;;;;;18.84;67.04;100350.28;4956883;29;19955;-83
2021/06/20 01:27:33;;;;;;;;;;;;;;;18.78;66.99;100353.31;4956553;29;19922;-83
2021/06/20 01:30:02;;;;;;;;;;;;;;;18.80;67.20;100352.94;4939498;29;19930;-93
2021/06/20 01:32:28;;;;;;;;;;;;;;;18.83;67.17;100357.81;4956566;29;19922;-84
2021/06/20 01:34:54;;;;;;;;;;;;;;;18.85;67.24;100355.50;4939473;29;19922;-83
2021/06/20 01:37:22;;;;;;;;;;;;;;;18.84;67.25;100355.84;4939372;29;20347;-83
2021/06/20 01:39:48;;;;;;;;;;;;;;;18.85;67.23;100361.06;4939352;29;19922;-83
2021/06/20 01:42:15;;;;;;;;;;;;;;;18.88;67.38;100354.03;4939201;29;19966;-83
2021/06/20 01:44:52;;;;;;;;;;;;;;;18.87;67.46;100358.72;4955441;28;19929;-83
2021/06/20 01:47:23;;;;;;;;;;;;;;;18.89;67.41;100356.44;4956416;29;19922;-83
2021/06/20 01:49:50;;;;;;;;;;;;;;;18.90;67.67;100354.47;4956237;29;19926;-83
2021/06/20 01:52:23;;;;;;;;;;;;;;;18.93;67.50;100357.34;4956057;29;19922;-93
2021/06/20 01:54:50;;;;;;;;;;;;;;;18.99;67.36;100363.50;4939201;29;19926;-84
2021/06/20 01:57:18;;;;;;;;;;;;;;;19.00;67.49;100362.34;4939299;29;20016;-91
2021/06/20 01:59:43;;;;;;;;;;;;;;;19.01;67.40;100366.75;4956275;29;20419;-94
2021/06/20 02:02:09;;;;;;;;;;;;;;;19.00;67.53;100374.22;4955640;29;19961;-84
2021/06/20 02:04:35;;;;;;;;;;;;;;;19.06;67.49;100371.25;4939021;29;20032;-83
2021/06/20 02:07:01;;;;;;;;;;;;;;;19.10;67.49;100374.94;4955976;29;19973;-84
2021/06/20 02:09:28;;;;;;;;;;;;;;;19.15;67.36;100363.63;4956016;29;19918;-92
2021/06/20 02:11:54;;;;;;;;;;;;;;;19.21;67.30;100376.13;4955925;29;20293;-88
2021/06/20 02:14:22;;;;;;;;;;;;;;;19.27;67.33;100368.38;4955886;29;19981;-83
2021/06/20 02:16:48;;;;;;;;;;;;;;;19.34;67.42;100374.97;4955652;29;19960;-83
2021/06/20 02:19:14;;;;;;;;;;;;;;;19.41;67.06;100375.19;4956019;28;20392;-84
2021/06/20 02:21:40;;;;;;;;;;;;;;;19.48;66.79;100375.44;4974944;28;19925;-84
2021/06/20 02:24:06;;;;;;;;;;;;;;;19.54;67.15;100375.22;4974857;28;20529;-90
2021/06/20 02:26:32;;;;;;;;;;;;;;;19.59;66.73;100373.00;4957636;28;19922;-83
2021/06/20 02:28:58;;;;;;;;;;;;;;;19.65;66.79;100376.38;4974724;28;19922;-94
2021/06/20 02:31:24;;;;;;;;;;;;;;;19.72;66.78;100379.38;4957744;28;20335;-83
2021/06/20 02:33:51;;;;;;;;;;;;;;;19.79;66.90;100376.00;4963683;28;20312;-83
2021/06/20 02:36:17;;;;;;;;;;;;;;;19.84;66.60;100386.88;4955242;29;19922;-83
2021/06/20 02:38:43;;;;;;;;;;;;;;;19.87;66.53;100384.22;4955454;29;20016;-91
2021/06/20 02:41:09;;;;;;;;;;;;;;;19.92;66.98;100391.47;4955359;29;19929;-83
2021/06/20 02:43:36;;;;;;;;;;;;;;;19.99;66.72;100380.59;4938162;29;19922;-83
2021/06/20 02:46:01;;;;;;;;;;;;;;;20.07;66.57;100378.84;4938160;29;19977;-92
2021/06/20 02:48:27;;;;;;;;;;;;;;;20.12;66.29;100384.94;4954144;29;19918;-83
2021/06/20 02:50:53;;;;;;;;;;;;;;;20.19;66.04;100381.59;4938469;29;19929;-83
2021/06/20 02:53:19;;;;;;;;;;;;;;;20.27;65.77;100380.66;4922166;29;19933;-83
2021/06/20 02:55:46;;;;;;;;;;;;;;;20.32;65.77;100383.16;4954936;28;19929;-83
2021/06/20 02:58:12;;;;;;;;;;;;;;;20.39;65.72;100388.09;4954941;29;19922;-83
2021/06/20 03:00:39;;;;;;;;;;;;;;;20.45;65.86;100388.66;4955090;29;19922;-94
2021/06/20 03:03:05;;;;;;;;;;;;;;;20.49;65.93;100384.81;4954850;29;19922;-89
2021/06/20 03:05:32;;;;;;;;;;;;;;;20.54;65.68;100384.63;4921917;29;19929;-83
2021/06/20 03:07:57;;;;;;;;;;;;;;;20.64;65.68;100381.31;4937940;29;19923;-83
2021/06/20 03:10:23;;;;;;;;;;;;;;;20.71;65.62;100377.94;4937571;29;19929;-83
2021/06/20 03:12:49;;;;;;;;;;;;;;;20.78;65.36;100380.09;4933890;29;19933;-85
2021/06/20 03:15:15;;;;;;;;;;;;;;;20.86;65.36;100379.94;4935380;29;20378;-92
2021/06/20 03:17:41;;;;;;;;;;;;;;;20.90;65.23;100368.91;4931982;29;19923;-93
2021/06/20 03:20:07;;;;;;;;;;;;;;;20.97;64.96;100371.06;4915490;29;20021;-93
2021/06/20 03:22:33;;;;;;;;;;;;;;;21.03;64.62;100372.44;4915568;29;20310;-83
2021/06/20 03:24:59;;;;;;;;;;;;;;;21.11;64.29;100379.78;4915469;29;19945;-93
2021/06/20 03:27:25;;;;;;;;;;;;;;;21.18;63.97;100382.72;4916354;29;20400;-93
2021/06/20 03:29:51;;;;;;;;;;;;;;;21.24;63.55;100374.94;4916510;29;20022;-83
2021/06/20 03:32:18;;;;;;;;;;;;;;;21.32;63.53;100374.75;4916173;29;19962;-94
2021/06/20 03:34:44;;;;;;;;;;;;;;;21.41;63.50;100382.94;4922480;29;19923;-84
2021/06/20 03:37:10;;;;;;;;;;;;;;;21.49;62.80;100378.34;4935033;29;20388;-84
2021/06/20 03:39:36;;;;;;;;;;;;;;;21.57;61.94;100374.56;4935185;29;20043;-83
2021/06/20 03:42:03;;;;;;;;;;;;;;;21.63;62.29;100375.13;4918416;29;19934;-83
2021/06/20 03:44:29;;;;;;;;;;;;;;;21.69;61.86;100374.47;4934949;29;20047;-87
2021/06/20 03:46:56;;;;;;;;;;;;;;;21.77;61.65;100378.22;4933892;29;20042;-83
2021/06/20 03:49:22;;;;;;;;;;;;;;;21.84;61.32;100372.81;4934874;29;19930;-92
2021/06/20 03:51:48;;;;;;;;;;;;;;;21.93;61.69;100376.19;4954185;29;19922;-83
2021/06/20 03:54:14;;;;;;;;;;;;;;;21.99;61.37;100371.16;4953347;29;20411;-83
2021/06/20 03:56:40;;;;;;;;;;;;;;;22.06;61.54;100362.97;4954482;28;19926;-91
2021/06/20 03:59:10;;;;;;;;;;;;;;;22.16;61.41;100375.53;4954473;29;19922;-83
2021/06/20 04:01:36;;;;;;;;;;;;;;;22.22;60.94;100371.28;4954178;28;20050;-93
2021/06/20 04:04:03;;;;;;;;;;;;;;;22.28;60.65;100367.84;4954010;28;20409;-92
2021/06/20 04:06:29;;;;;;;;;;;;;;;22.37;59.65;100372.38;4955476;28;19929;-94
2021/06/20 04:08:57;;;;;;;;;;;;;;;22.43;58.91;100365.34;4949886;29;20403;-92
2021/06/20 04:11:23;;;;;;;;;;;;;;;22.50;59.55;100365.47;4937971;29;19922;-83
2021/06/20 04:13:48;;;;;;;;;;;;;;;22.57;59.21;100371.19;4953019;29;19993;-89
2021/06/20 04:16:14;;;;;;;;;;;;;;;22.65;59.11;100370.16;4941023;29;19970;-83
2021/06/20 04:18:40;;;;;;;;;;;;;;;22.72;58.09;100369.50;4958095;29;19922;-91
2021/06/20 04:21:06;;;;;;;;;;;;;;;22.81;58.36;100369.22;4938956;29;19978;-93
2021/06/20 04:23:31;;;;;;;;;;;;;;;22.89;58.07;100368.22;4938738;29;20451;-94
2021/06/20 04:25:57;;;;;;;;;;;;;;;22.94;57.69;100367.91;4938703;29;19922;-83
2021/06/20 04:28:23;;;;;;;;;;;;;;;23.02;57.10;100363.28;4955624;29;19922;-83
2021/06/20 04:30:54;;;;;;;;;;;;;;;23.10;57.04;100374.19;4957765;29;19978;-92
2021/06/20 04:33:20;;;;;;;;;;;;;;;23.18;56.87;100364.78;4940685;29;19926;-83
2021/06/20 04:35:46;;;;;;;;;;;;;;;23.27;57.00;100366.47;4957574;29;19957;-93
2021/06/20 04:38:12;;;;;;;;;;;;;;;23.34;57.27;100361.03;4940618;29;19972;-83
2021/06/20 04:40:39;;;;;;;;;;;;;;;23.43;56.59;100361.56;4957511;29;19929;-92
2021/06/20 04:43:10;;;;;;;;;;;;;;;23.51;56.21;100363.31;4940316;29;20146;-82
2021/06/20 04:45:39;;;;;;;;;;;;;;;23.55;56.33;100361.38;4957415;29;19922;-83
2021/06/20 04:48:05;;;;;;;;;;;;;;;23.62;55.57;100363.47;4957289;29;19926;-91
2021/06/20 04:50:31;;;;;;;;;;;;;;;23.70;54.86;100359.59;4940876;29;19922;-91
2021/06/20 04:52:57;;;;;;;;;;;;;;;23.77;53.98;100359.72;4957168;29;19922;-90
2021/06/20 04:55:22;;;;;;;;;;;;;;;23.87;53.92;100355.47;4940135;29;19945;-82
2021/06/20 04:57:48;;;;;;;;;;;;;;;23.94;52.53;100352.78;4957048;29;20411;-91
2021/06/20 05:00:14;;;;;;;;;;;;;;;23.99;51.56;100355.25;4932905;29;19934;-89
2021/06/20 05:02:41;;;;;;;;;;;;;;;24.22;52.57;100359.94;4956469;29;20395;-79
2021/06/20 05:05:07;;;;;;;;;;;;;;;24.60;51.63;100361.59;4955362;29;19922;-81
2021/06/20 05:07:33;;;;;;;;;;;;;;;24.97;50.63;100356.00;4955473;29;19973;-74
2021/06/20 05:09:59;;;;;;;;;;;;;;;25.16;49.23;100356.97;4956132;29;19926;-81
2021/06/20 05:12:26;;;;;;;;;;;;;;;25.26;49.17;100350.66;4938874;29;19945;-78
2021/06/20 05:14:52;;;;;;;;;;;;;;;25.34;48.31;100349.53;4956075;29;19922;-77
2021/06/20 05:17:18;;;;;;;;;;;;;;;25.53;48.58;100351.28;4955960;28;19918;-81
2021/06/20 05:19:44;;;;;;;;;;;;;;;25.50;48.41;100352.84;4952772;29;19922;-82
2021/06/20 05:22:11;;;;;;;;;;;;;;;25.61;48.21;100355.72;4941155;29;19934;-85
2021/06/20 05:24:38;;;;;;;;;;;;;;;25.64;48.42;100356.94;4939744;29;19945;-76
2021/06/20 05:27:04;;;;;;;;;;;;;;;25.70;48.79;100361.00;4939010;29;20384;-84
2021/06/20 05:29:30;;;;;;;;;;;;;;;25.64;47.98;100351.34;4954913;29;19934;-83
2021/06/20 05:31:59;;;;;;;;;;;;;;;25.68;48.68;100355.75;4944126;29;20566;-78
2021/06/20 05:34:25;;;;;;;;;;;;;;;25.95;48.29;100364.75;4954907;29;19926;-77
2021/06/20 05:36:51;;;;;;;;;;;;;;;25.89;47.77;100357.09;4954685;29;19934;-75
2021/06/20 05:39:17;;;;;;;;;;;;;;;26.13;47.23;100350.84;4944377;29;19929;-83
2021/06/20 05:41:42;;;;;;;;;;;;;;;26.15;46.92;100354.03;4953124;29;19923;-82
2021/06/20 05:44:08;;;;;;;;;;;;;;;26.09;47.23;100361.22;4952552;29;19926;-79
2021/06/20 05:46:35;;;;;;;;;;;;;;;26.10;46.40;100345.22;4950888;28;20283;-75
2021/06/20 05:49:00;;;;;;;;;;;;;;;26.14;46.86;100343.22;4951882;29;19937;-77
2021/06/20 05:51:26;;;;;;;;;;;;;;;26.15;47.03;100347.63;4952573;29;20367;-76
2021/06/20 05:53:53;;;;;;;;;;;;;;;26.25;46.58;100344.88;4952469;28;20037;-84
2021/06/20 05:56:19;;;;;;;;;;;;;;;26.33;46.36;100348.50;4952040;29;19922;-82
2021/06/20 05:58:45;;;;;;;;;;;;;;;26.45;45.84;100345.34;4952649;28;19922;-86
2021/06/20 06:01:11;;;;;;;;;;;;;;;26.58;45.34;100345.00;4939295;29;19977;-82
2021/06/20 06:03:37;;;;;;;;;;;;;;;26.60;43.37;100346.22;4952449;29;19922;-81
2021/06/20 06:06:03;;;;;;;;;;;;;;;26.42;45.66;100340.53;4952335;29;19929;-81
2021/06/20 06:08:30;;;;;;;;;;;;;;;26.43;45.52;100350.56;4948095;29;19933;-81
2021/06/20 06:10:56;;;;;;;;;;;;;;;26.53;45.92;100348.22;4936254;29;19922;-83
2021/06/20 06:13:22;;;;;;;;;;;;;;;26.69;46.00;100343.03;4951299;29;19923;-82
2021/06/20 06:15:48;;;;;;;;;;;;;;;26.80;45.45;100348.66;4951721;29;19945;-81
2021/06/20 06:18:14;;;;;;;;;;;;;;;26.82;45.56;100340.63;4952424;29;19922;-85
2021/06/20 06:20:40;;;;;;;;;;;;;;;26.96;44.99;100346.28;4951073;28;20025;-84
2021/06/20 06:23:06;;;;;;;;;;;;;;;26.91;44.94;100344.66;4940155;29;20028;-82
2021/06/20 06:25:33;;;;;;;;;;;;;;;26.91;44.48;100344.66;4950040;29;20343;-84
2021/06/20 06:28:01;;;;;;;;;;;;;;;27.06;44.60;100347.50;4951340;29;19930;-82
2021/06/20 06:30:28;;;;;;;;;;;;;;;27.03;45.03;100339.88;4954403;28;19929;-79
2021/06/20 06:32:54;;;;;;;;;;;;;;;27.16;44.57;100347.53;4949724;29;19926;-85
2021/06/20 06:35:22;;;;;;;;;;;;;;;27.29;43.43;100353.53;4952172;29;19929;-81
2021/06/20 06:37:49;;;;;;;;;;;;;;;27.28;43.33;100353.94;4951430;29;19922;-84
2021/06/20 06:40:16;;;;;;;;;;;;;;;27.01;42.30;100343.06;4951670;29;19929;-77
2021/06/20 06:42:41;;;;;;;;;;;;;;;27.00;43.02;100351.91;4952555;29;19922;-79
2021/06/20 06:45:08;;;;;;;;;;;;;;;27.07;43.43;100349.09;4952220;29;20002;-82
2021/06/20 06:47:36;;;;;;;;;;;;;;;27.25;42.99;100352.75;4952139;29;19926;-81
2021/06/20 06:50:05;;;;;;;;;;;;;;;27.42;43.24;100353.94;4950413;29;20013;-82
2021/06/20 06:52:31;;;;;;;;;;;;;;;27.41;41.78;100357.94;4952041;29;19992;-80
2021/06/20 06:54:57;;;;;;;;;;;;;;;27.28;42.52;100348.31;4952753;29;19980;-81
2021/06/20 06:57:23;;;;;;;;;;;;;;;27.10;42.86;100340.66;4953347;29;20001;-87
2021/06/20 06:59:53;;;;;;;;;;;;;;;27.18;42.15;100341.50;4940464;29;19926;-88
2021/06/20 07:02:22;;;;;;;;;;;;;;;27.35;42.94;100337.91;4920495;29;20012;-86
2021/06/20 07:04:48;;;;;;;;;;;;;;;27.41;42.71;100343.88;4950183;29;20028;-89
2021/06/20 07:07:14;;;;;;;;;;;;;;;27.49;42.71;100339.88;4952971;29;20013;-89
2021/06/20 07:09:40;;;;;;;;;;;;;;;27.42;42.78;100339.91;4953819;29;20029;-87
2021/06/20 07:12:07;;;;;;;;;;;;;;;27.45;42.28;100339.09;4953179;29;20115;-88
2021/06/20 07:14:34;;;;;;;;;;;;;;;27.57;42.63;100343.47;4953515;29;19969;-78
2021/06/20 07:17:06;;;;;;;;;;;;;;;27.68;42.08;100347.03;4954072;28;20008;-88
2021/06/20 07:19:34;;;;;;;;;;;;;;;27.70;41.31;100339.03;4952890;29;19929;-90
2021/06/20 07:22:00;;;;;;;;;;;;;;;27.73;41.88;100337.44;4951025;29;19926;-86
2021/06/20 07:24:27;;;;;;;;;;;;;;;27.84;42.24;100339.00;4949414;29;19929;-79
2021/06/20 07:26:52;;;;;;;;;;;;;;;27.85;41.80;100337.03;4951473;29;19922;-81
2021/06/20 07:29:18;;;;;;;;;;;;;;;27.93;41.75;100341.41;4951371;29;19922;-89
2021/06/20 07:31:44;;;;;;;;;;;;;;;27.96;41.49;100337.00;4951331;29;19946;-82
2021/06/20 07:34:11;;;;;;;;;;;;;;;28.03;41.11;100331.34;4951501;29;19922;-79
2021/06/20 07:36:37;;;;;;;;;;;;;;;28.05;41.10;100337.38;4941768;29;19985;-87
2021/06/20 07:39:03;;;;;;;;;;;;;;;28.03;40.43;100336.97;4950155;29;19926;-87
2021/06/20 07:41:29;;;;;;;;;;;;;;;28.03;41.17;100334.94;4950162;29;19926;-84
2021/06/20 07:43:55;;;;;;;;;;;;;;;28.05;41.00;100337.38;4947676;29;19930;-79
2021/06/20 07:46:21;;;;;;;;;;;;;;;28.16;40.52;100328.88;4949761;29;19929;-82
2021/06/20 07:48:46;;;;;;;;;;;;;;;28.16;40.24;100334.50;4949796;29;19922;-79
2021/06/20 07:51:12;;;;;;;;;;;;;;;28.20;39.71;100333.25;4951771;29;20706;-84
2021/06/20 07:53:38;;;;;;;;;;;;;;;28.09;40.51;100329.72;4951305;29;19922;-79
2021/06/20 07:56:04;;;;;;;;;;;;;;;27.89;40.43;100322.97;4917769;29;20319;-88
2021/06/20 07:58:30;;;;;;;;;;;;;;;27.96;42.56;100317.31;4949874;29;19922;-89
2021/06/20 08:00:57;;;;;;;;;;;;;;;28.09;40.50;100322.06;4949233;29;19926;-91
2021/06/20 08:03:22;;;;;;;;;;;;;;;28.29;40.96;100324.41;4950082;29;19934;-89
2021/06/20 08:05:49;;;;;;;;;;;;;;;28.29;40.55;100316.75;4950394;29;20006;-78
2021/06/20 08:08:17;;;;;;;;;;;;;;;28.37;40.40;100313.91;4947199;29;20024;-80
2021/06/20 08:10:43;;;;;;;;;;;;;;;28.31;40.25;100317.16;4949749;29;19926;-83
2021/06/20 08:13:09;;;;;;;;;;;;;;;28.16;38.70;100309.19;4950085;29;19922;-88
2021/06/20 08:15:35;;;;;;;;;;;;;;;28.27;40.11;100315.56;4950301;29;20289;-83
2021/06/20 08:18:01;;;;;;;;;;;;;;;28.37;40.55;100317.50;4950038;29;19931;-82
2021/06/20 08:20:26;;;;;;;;;;;;;;;28.48;39.26;100321.13;4950781;28;19923;-87
2021/06/20 08:22:52;;;;;;;;;;;;;;;28.35;38.38;100305.88;4950175;29;19922;-83
2021/06/20 08:25:18;;;;;;;;;;;;;;;28.29;39.34;100308.31;4948196;29;19941;-76
2021/06/20 08:27:44;;;;;;;;;;;;;;;28.39;38.26;100317.94;4949444;29;20393;-87
2021/06/20 08:30:10;;;;;;;;;;;;;;;28.47;39.98;100315.88;4942466;29;19926;-77
2021/06/20 08:32:36;;;;;;;;;;;;;;;28.57;40.14;100310.19;4949058;29;19922;-86
2021/06/20 08:35:03;;;;;;;;;;;;;;;28.60;39.32;100311.38;4950521;29;19922;-90
2021/06/20 08:37:30;;;;;;;;;;;;;;;28.60;40.33;100311.38;4948312;29;19926;-81
2021/06/20 08:39:56;;;;;;;;;;;;;;;28.76;39.77;100314.47;4948710;29;20012;-89
2021/06/20 08:42:22;;;;;;;;;;;;;;;28.87;39.13;100310.78;4949243;29;19927;-89
2021/06/20 08:44:49;;;;;;;;;;;;;;;28.76;38.38;100308.06;4949742;29;19945;-89
2021/06/20 08:47:18;;;;;;;;;;;;;;;28.70;39.20;100316.13;4950274;29;19930;-89
2021/06/20 08:49:45;;;;;;;;;;;;;;;28.77;38.46;100309.66;4949688;29;19926;-82
2021/06/20 08:52:11;;;;;;;;;;;;;;;28.69;38.96;100308.91;4948626;28;20427;-76
2021/06/20 08:54:37;;;;;;;;;;;;;;;28.76;39.15;100302.44;4950871;29;19928;-76
2021/06/20 08:57:06;;;;;;;;;;;;;;;28.81;39.46;100307.63;4951694;29;19926;-76
2021/06/20 08:59:32;;;;;;;;;;;;;;;28.92;39.47;100301.91;4952601;29;19945;-80
2021/06/20 09:01:58;;;;;;;;;;;;;;;28.88;40.32;100298.34;4952362;29;19926;-83
2021/06/20 09:04:30;;;;;;;;;;;;;;;28.79;38.11;100287.53;4963317;28;19929;-88
2021/06/20 09:07:00;;;;;;;;;;;;;;;28.85;39.38;100288.69;4953348;29;20021;-88
2021/06/20 09:09:26;;;;;;;;;;;;;;;28.93;39.52;100278.16;4951407;29;20908;-78
2021/06/20 09:12:04;;;;;;;;;;;;;;;28.93;38.51;100286.63;4939739;29;20021;-88
2021/06/20 09:14:30;;;;;;;;;;;;;;;28.92;38.70;100279.41;4950308;29;19926;-77
2021/06/20 09:16:56;;;;;;;;;;;;;;;29.01;38.28;100274.13;4952215;29;19929;-77
2021/06/20 09:19:32;;;;;;;;;;;;;;;28.97;37.87;100281.75;4938526;29;19922;-84
2021/06/20 09:22:01;;;;;;;;;;;;;;;28.83;37.71;100282.66;4951335;29;19927;-76
2021/06/20 09:24:28;;;;;;;;;;;;;;;28.83;39.13;100273.44;4952136;28;19926;-87
2021/06/20 09:26:55;;;;;;;;;;;;;;;28.88;39.01;100273.00;4950907;29;19933;-84
2021/06/20 09:29:47;;;;;;;;;;;;;;;28.95;39.54;100270.13;4935799;29;19933;-87
2021/06/20 09:32:14;;;;;;;;;;;;;;;29.03;39.16;100269.66;4950635;29;20467;-88
2021/06/20 09:34:54;;;;;;;;;;;;;;;29.13;38.92;100265.16;4953884;29;20005;-80
2021/06/20 09:37:21;;;;;;;;;;;;;;;29.27;38.75;100253.75;4953352;29;19926;-90
2021/06/20 09:39:48;;;;;;;;;;;;;;;29.33;38.04;100248.44;4954207;29;19922;-92
2021/06/20 09:42:15;;;;;;;;;;;;;;;29.37;38.00;100252.06;4953644;29;19923;-86
2021/06/20 09:44:44;;;;;;;;;;;;;;;29.47;37.95;100248.31;4953225;29;20276;-84
2021/06/20 09:47:24;;;;;;;;;;;;;;;29.52;37.75;100249.06;4952911;28;20406;-80
2021/06/20 09:49:51;;;;;;;;;;;;;;;29.53;37.64;100251.44;4945595;29;20049;-80
2021/06/20 09:52:26;;;;;;;;;;;;;;;29.53;38.23;100247.84;4948997;29;19927;-77
2021/06/20 09:54:53;;;;;;;;;;;;;;;29.61;38.03;100244.56;4951730;29;19922;-76
2021/06/20 09:57:18;;;;;;;;;;;;;;;29.63;38.21;100238.50;4942707;29;19922;-76
2021/06/20 10:00:01;;;;;;;;;;;;;;;29.60;38.42;100240.13;4953106;29;19922;-88
2021/06/20 10:02:41;;;;;;;;;;;;;;;29.64;37.72;100232.44;4949991;29;19922;-75
2021/06/20 10:05:11;;;;;;;;;;;;;;;29.70;37.56;100236.41;4952937;28;19977;-81
2021/06/20 10:07:37;;;;;;;;;;;;;;;29.78;37.58;100228.66;4954095;29;19929;-74
2021/06/20 10:12:36;;;;;;;;;;;;;;;29.93;37.51;100229.25;4954677;29;20479;-78
2021/06/20 10:15:10;;;;;;;;;;;;;;;29.97;38.48;100232.84;4954690;28;19923;-88
2021/06/20 10:17:38;;;;;;;;;;;;;;;30.00;37.18;100225.53;4953316;29;19965;-74
2021/06/20 10:20:05;;;;;;;;;;;;;;;29.99;36.65;100221.13;4953073;29;19926;-76
2021/06/20 10:22:37;;;;;;;;;;;;;;;29.86;35.04;100232.16;4952545;29;19929;-77
2021/06/20 10:25:05;;;;;;;;;;;;;;;29.87;37.72;100219.69;4952945;29;19929;-87
2021/06/20 10:27:35;;;;;;;;;;;;;;;29.95;36.54;100210.69;4934256;29;19933;-79
2021/06/20 10:30:08;;;;;;;;;;;;;;;30.08;36.93;100215.78;4950728;29;19929;-81
2021/06/20 10:32:43;;;;;;;;;;;;;;;30.17;36.72;100214.03;4953600;28;20406;-78
2021/06/20 10:35:14;;;;;;;;;;;;;;;30.19;36.46;100211.59;4952644;28;19929;-77
2021/06/20 10:37:40;;;;;;;;;;;;;;;30.22;35.75;100209.94;4952518;29;20178;-76
2021/06/20 10:40:18;;;;;;;;;;;;;;;30.30;36.22;100205.81;4953050;29;20382;-82
2021/06/20 10:42:47;;;;;;;;;;;;;;;30.35;35.88;100207.34;4953458;29;19926;-76
2021/06/20 10:45:13;;;;;;;;;;;;;;;30.32;35.70;100203.34;4952253;29;19922;-76
2021/06/20 10:47:43;;;;;;;;;;;;;;;30.33;34.93;100204.13;4951281;28;20016;-78
2021/06/20 10:50:10;;;;;;;;;;;;;;;30.37;36.45;100197.22;4949430;29;19989;-75
2021/06/20 10:52:38;;;;;;;;;;;;;;;30.43;36.48;100203.16;4953045;28;19929;-89
2021/06/20 10:55:12;;;;;;;;;;;;;;;30.49;36.22;100189.38;4952441;29;20012;-77
2021/06/20 10:57:43;;;;;;;;;;;;;;;30.56;35.71;100189.25;4952867;29;20307;-80
2021/06/20 11:00:09;;;;;;;;;;;;;;;30.45;36.27;100164.03;4953372;29;19923;-75
2021/06/20 11:02:36;;;;;;;;;;;;;;;30.57;36.15;100188.03;4952521;29;19930;-75
2021/06/20 11:05:03;;;;;;;;;;;;;;;30.61;35.55;100183.13;4936649;29;19922;-78
2021/06/20 11:07:30;;;;;;;;;;;;;;;30.67;36.14;100184.25;4952344;28;19929;-75
2021/06/20 11:09:56;;;;;;;;;;;;;;;30.67;35.63;100179.38;4952283;29;19922;-76
2021/06/20 11:12:22;;;;;;;;;;;;;;;30.77;35.69;100180.47;4950810;29;19929;-75
2021/06/20 11:14:49;;;;;;;;;;;;;;;30.91;35.31;100181.44;4951094;29;19930;-77
2021/06/20 11:17:16;;;;;;;;;;;;;;;30.86;34.65;100177.88;4948957;28;19926;-85
2021/06/20 11:19:42;;;;;;;;;;;;;;;30.77;34.19;100182.50;4940308;29;19922;-79
2021/06/20 11:22:09;;;;;;;;;;;;;;;30.86;35.64;100175.06;4954040;29;19922;-87
2021/06/20 11:24:49;;;;;;;;;;;;;;;31.03;35.00;100175.16;4954267;29;19929;-81
2021/06/20 11:27:18;;;;;;;;;;;;;;;31.09;35.27;100170.59;4936455;29;19923;-83
2021/06/20 11:29:50;;;;;;;;;;;;;;;31.16;34.27;100164.81;4953624;29;19922;-83
2021/06/20 11:32:23;;;;;;;;;;;;;;;31.18;34.42;100170.03;4954448;29;19929;-82
2021/06/20 11:34:51;;;;;;;;;;;;;;;31.17;33.85;100171.25;4954187;29;19989;-83
2021/06/20 11:37:24;;;;;;;;;;;;;;;31.13;33.70;100172.13;4954163;29;19977;-82
2021/06/20 11:39:56;;;;;;;;;;;;;;;31.26;35.34;100171.47;4937107;29;19960;-83
2021/06/20 11:42:32;;;;;;;;;;;;;;;31.41;34.67;100172.81;4936996;29;19965;-83
2021/06/20 11:45:26;;;;;;;;;;;;;;;31.35;33.13;100166.06;4954121;29;19928;-83
2021/06/20 11:47:53;;;;;;;;;;;;;;;31.48;32.71;100166.22;4951408;29;20303;-83
2021/06/20 11:50:25;;;;;;;;;;;;;;;31.46;34.22;100161.00;4936852;29;19922;-83
2021/06/20 11:52:55;;;;;;;;;;;;;;;31.59;34.35;100164.78;4953928;29;20414;-83
2021/06/20 11:55:22;;;;;;;;;;;;;;;31.75;34.05;100166.03;4920972;29;19929;-83
2021/06/20 11:57:49;;;;;;;;;;;;;;;31.74;33.61;100164.44;4936813;29;19922;-83
2021/06/20 12:00:18;;;;;;;;;;;;;;;31.74;32.59;100150.31;4953288;29;20024;-83
2021/06/20 12:02:57;;;;;;;;;;;;;;;31.83;33.20;100159.00;4953906;29;19922;-83
2021/06/20 12:05:23;;;;;;;;;;;;;;;31.74;32.88;100155.97;4953035;29;19977;-84
2021/06/20 12:07:50;;;;;;;;;;;;;;;31.78;33.62;100157.47;4953810;29;19926;-86
2021/06/20 12:10:18;;;;;;;;;;;;;;;31.95;32.40;100152.66;4936460;29;19922;-84
2021/06/20 12:12:44;;;;;;;;;;;;;;;31.91;32.27;100151.16;4935661;29;19969;-83
2021/06/20 12:15:12;;;;;;;;;;;;;;;31.99;34.63;100147.75;4936502;29;19969;-83
2021/06/20 12:18:02;;;;;;;;;;;;;;;32.09;32.94;100145.09;4954020;29;19970;-83
2021/06/20 12:20:30;;;;;;;;;;;;;;;32.18;32.70;100151.72;4894431;29;19931;-85
2021/06/20 12:22:57;;;;;;;;;;;;;;;32.25;31.51;100145.09;4894177;29;19923;-83
2021/06/20 12:25:23;;;;;;;;;;;;;;;32.29;31.48;100143.00;4878939;29;20425;-83
2021/06/20 12:27:49;;;;;;;;;;;;;;;32.36;32.73;100134.31;4895875;29;19923;-83
2021/06/20 12:30:20;;;;;;;;;;;;;;;32.30;32.46;100127.59;4897227;29;20385;-84
2021/06/20 12:32:51;;;;;;;;;;;;;;;32.37;33.06;100143.59;4898077;29;20026;-83
2021/06/20 12:35:26;;;;;;;;;;;;;;;32.27;32.62;100139.81;4898003;29;19923;-83
2021/06/20 12:37:54;;;;;;;;;;;;;;;32.41;33.04;100135.81;4881956;29;19930;-84
2021/06/20 12:40:21;;;;;;;;;;;;;;;32.51;32.64;100140.44;4896455;29;20026;-83